PKV weather

Pskov Airport
Pskov, Pskov Oblast, Russia

Public forecast

Using degrees Celsius for public forecast. Weather courtesy of forecast.io.

Current aviation weather report (METAR) for Pskov Airport

Retrieved 2019/10/20 07:30 UTC (1 minute ago):

ULOO 200730Z VRB01MPS 0250 0200S R19/M0300N FG VV001 08/08 Q1017 R19/190055 NOSIG RMK QBB030 OBST OBSC QFE759

Aviation forecast (TAF) for Pskov Airport

Forecast is more than 12 hours old.

Retrieved 2014/02/25 06:12 UTC (6 years ago):

TAF ULOO 250456Z 2506/2615 17004MPS 6000 BKN010 TEMPO 2506/2512 VRB02MPS 2100 BR BKN007